If you wish to contribute or participate in the discussions about articles you are invited to join SKYbrary as a registered user

 Actions

Burgas Airport

From SKYbrary Wiki

LBBG
Airport
ICAO: LBBG – IATA: BOJ
Summary
Name Burgas Airport
Region Europe
Territory Bulgaria BG.gif
Location , Burgas
Serving Bourgas
Elevation 41.148 m
135 ft
135 ft41.148 m
Type large airport
Coordinates 42° 34' 10.50" N, 27° 30' 54.85" E
Runways
Designator Length Width Surface ROPS
4/22 3200 m10,498.688 ft
45 m147.638 ft
CON yes/yes


METAR
Observation LBBG 081630Z 32003KT CAVOK 10/04 Q1019 NOSIG
Station Burgas
Date/Time 08 December 2019 16:30:00
Wind direction 320°
Wind speed 03 kts
Lowest cloud amount clouds and visibility OK
Temperature 10°C
Dew point 4°C
Humidity 66%
QNH 1019 hPa
Weather condition n/a

Burgas Airport is an international airport in southeast Bulgaria and the second largest airport in the country. The airport is located near to the north neighbourhood of Burgas, Sarafovo almost 10 kilometres5.4 nm
10,000 m
32,808.399 ft
from the city centre.

Maps

Terrain

Loading map...

Airport Layout

Loading map...


Accidents & Serious Incidents at or in vicinity of LBBG

None on SKYbrary